sensor_id;sensor_type;location;lat;lon;timestamp;P1;durP1;ratioP1;P2;durP2;ratioP2
3591;SDS011;1810;48.720;9.094;2023-06-22T00:01:22;126.80;;;121.40;;
3591;SDS011;1810;48.720;9.094;2023-06-22T00:03:53;159.48;;;152.65;;
3591;SDS011;1810;48.720;9.094;2023-06-22T00:06:21;130.45;;;124.32;;
3591;SDS011;1810;48.720;9.094;2023-06-22T00:08:50;142.07;;;135.90;;
3591;SDS011;1810;48.720;9.094;2023-06-22T00:11:18;123.50;;;118.13;;
3591;SDS011;1810;48.720;9.094;2023-06-22T00:13:47;134.77;;;128.15;;
3591;SDS011;1810;48.720;9.094;2023-06-22T00:16:17;125.20;;;119.55;;
3591;SDS011;1810;48.720;9.094;2023-06-22T00:18:45;133.77;;;127.63;;
3591;SDS011;1810;48.720;9.094;2023-06-22T00:21:16;114.43;;;108.97;;
3591;SDS011;1810;48.720;9.094;2023-06-22T00:23:46;123.57;;;118.18;;
3591;SDS011;1810;48.720;9.094;2023-06-22T00:26:15;119.10;;;113.93;;
3591;SDS011;1810;48.720;9.094;2023-06-22T00:28:43;128.38;;;122.82;;
3591;SDS011;1810;48.720;9.094;2023-06-22T00:31:12;128.05;;;122.68;;
3591;SDS011;1810;48.720;9.094;2023-06-22T00:33:40;122.72;;;117.45;;
3591;SDS011;1810;48.720;9.094;2023-06-22T00:36:08;127.78;;;122.22;;
3591;SDS011;1810;48.720;9.094;2023-06-22T00:38:40;155.73;;;149.07;;
3591;SDS011;1810;48.720;9.094;2023-06-22T00:41:09;127.18;;;121.53;;
3591;SDS011;1810;48.720;9.094;2023-06-22T00:43:37;123.90;;;118.53;;
3591;SDS011;1810;48.720;9.094;2023-06-22T00:46:07;120.40;;;115.28;;
3591;SDS011;1810;48.720;9.094;2023-06-22T00:48:35;136.68;;;130.45;;
3591;SDS011;1810;48.720;9.094;2023-06-22T00:51:04;117.25;;;112.25;;
3591;SDS011;1810;48.720;9.094;2023-06-22T00:53:32;125.95;;;120.43;;
3591;SDS011;1810;48.720;9.094;2023-06-22T00:56:04;125.13;;;119.47;;
3591;SDS011;1810;48.720;9.094;2023-06-22T00:58:35;125.68;;;120.40;;
3591;SDS011;1810;48.720;9.094;2023-06-22T01:01:06;119.50;;;114.05;;
3591;SDS011;1810;48.720;9.094;2023-06-22T01:03:35;123.00;;;117.57;;
3591;SDS011;1810;48.720;9.094;2023-06-22T01:06:06;125.13;;;119.57;;
3591;SDS011;1810;48.720;9.094;2023-06-22T01:08:37;128.45;;;122.97;;
3591;SDS011;1810;48.720;9.094;2023-06-22T01:11:14;116.97;;;111.82;;
3591;SDS011;1810;48.720;9.094;2023-06-22T01:13:46;140.13;;;134.07;;
3591;SDS011;1810;48.720;9.094;2023-06-22T01:16:20;127.38;;;121.88;;
3591;SDS011;1810;48.720;9.094;2023-06-22T01:18:50;136.32;;;130.30;;
3591;SDS011;1810;48.720;9.094;2023-06-22T01:21:20;135.40;;;129.65;;
3591;SDS011;1810;48.720;9.094;2023-06-22T01:23:56;125.72;;;120.20;;
3591;SDS011;1810;48.720;9.094;2023-06-22T01:26:38;131.07;;;125.53;;
3591;SDS011;1810;48.720;9.094;2023-06-22T01:31:40;147.93;;;141.38;;
3591;SDS011;1810;48.720;9.094;2023-06-22T01:34:09;120.38;;;115.05;;
3591;SDS011;1810;48.720;9.094;2023-06-22T01:36:39;127.13;;;121.80;;
3591;SDS011;1810;48.720;9.094;2023-06-22T01:39:08;128.60;;;122.72;;
3591;SDS011;1810;48.720;9.094;2023-06-22T01:41:37;119.72;;;114.32;;
3591;SDS011;1810;48.720;9.094;2023-06-22T01:44:06;127.85;;;122.32;;
3591;SDS011;1810;48.720;9.094;2023-06-22T01:46:36;127.07;;;121.60;;
3591;SDS011;1810;48.720;9.094;2023-06-22T01:49:05;123.88;;;118.32;;
3591;SDS011;1810;48.720;9.094;2023-06-22T01:51:34;134.77;;;128.88;;
3591;SDS011;1810;48.720;9.094;2023-06-22T01:54:02;135.35;;;129.40;;
3591;SDS011;1810;48.720;9.094;2023-06-22T01:56:33;120.82;;;115.57;;
3591;SDS011;1810;48.720;9.094;2023-06-22T01:59:03;149.68;;;142.63;;
3591;SDS011;1810;48.720;9.094;2023-06-22T02:01:38;129.40;;;123.50;;
3591;SDS011;1810;48.720;9.094;2023-06-22T02:08:00;142.95;;;136.68;;
3591;SDS011;1810;48.720;9.094;2023-06-22T02:10:33;131.55;;;125.80;;
3591;SDS011;1810;48.720;9.094;2023-06-22T02:13:03;130.00;;;124.15;;
3591;SDS011;1810;48.720;9.094;2023-06-22T02:15:33;120.97;;;115.68;;
3591;SDS011;1810;48.720;9.094;2023-06-22T02:18:03;141.23;;;135.30;;
3591;SDS011;1810;48.720;9.094;2023-06-22T02:20:32;132.40;;;126.43;;
3591;SDS011;1810;48.720;9.094;2023-06-22T02:23:03;135.15;;;128.88;;
3591;SDS011;1810;48.720;9.094;2023-06-22T02:25:32;135.70;;;129.48;;
3591;SDS011;1810;48.720;9.094;2023-06-22T02:28:01;141.60;;;135.38;;
3591;SDS011;1810;48.720;9.094;2023-06-22T02:30:30;133.70;;;127.38;;
3591;SDS011;1810;48.720;9.094;2023-06-22T02:32:59;135.45;;;129.35;;
3591;SDS011;1810;48.720;9.094;2023-06-22T02:35:28;142.77;;;136.20;;
3591;SDS011;1810;48.720;9.094;2023-06-22T02:37:58;129.85;;;124.00;;
3591;SDS011;1810;48.720;9.094;2023-06-22T02:40:27;137.43;;;131.30;;
3591;SDS011;1810;48.720;9.094;2023-06-22T02:42:57;140.20;;;134.07;;
3591;SDS011;1810;48.720;9.094;2023-06-22T02:45:29;130.57;;;124.72;;
3591;SDS011;1810;48.720;9.094;2023-06-22T02:47:57;136.32;;;130.48;;
3591;SDS011;1810;48.720;9.094;2023-06-22T02:50:26;145.07;;;138.77;;
3591;SDS011;1810;48.720;9.094;2023-06-22T02:52:56;138.90;;;132.93;;
3591;SDS011;1810;48.720;9.094;2023-06-22T02:55:25;139.00;;;133.02;;
3591;SDS011;1810;48.720;9.094;2023-06-22T02:57:53;129.82;;;124.40;;
3591;SDS011;1810;48.720;9.094;2023-06-22T03:00:23;124.65;;;119.22;;
3591;SDS011;1810;48.720;9.094;2023-06-22T03:02:57;146.38;;;139.93;;
3591;SDS011;1810;48.720;9.094;2023-06-22T03:05:26;129.25;;;123.63;;
3591;SDS011;1810;48.720;9.094;2023-06-22T03:07:56;123.80;;;118.35;;
3591;SDS011;1810;48.720;9.094;2023-06-22T03:10:24;134.52;;;128.68;;
3591;SDS011;1810;48.720;9.094;2023-06-22T03:12:54;139.68;;;133.18;;
3591;SDS011;1810;48.720;9.094;2023-06-22T03:15:22;139.27;;;132.80;;
3591;SDS011;1810;48.720;9.094;2023-06-22T03:17:51;130.40;;;124.57;;
3591;SDS011;1810;48.720;9.094;2023-06-22T03:20:20;132.82;;;126.97;;
3591;SDS011;1810;48.720;9.094;2023-06-22T03:22:49;135.68;;;129.85;;
3591;SDS011;1810;48.720;9.094;2023-06-22T03:25:19;135.23;;;129.13;;
3591;SDS011;1810;48.720;9.094;2023-06-22T03:27:47;135.98;;;129.63;;
3591;SDS011;1810;48.720;9.094;2023-06-22T03:30:16;139.85;;;133.80;;
3591;SDS011;1810;48.720;9.094;2023-06-22T03:32:44;129.15;;;123.47;;
3591;SDS011;1810;48.720;9.094;2023-06-22T03:35:14;130.35;;;124.65;;
3591;SDS011;1810;48.720;9.094;2023-06-22T03:37:42;138.07;;;131.98;;
3591;SDS011;1810;48.720;9.094;2023-06-22T03:40:11;138.73;;;132.50;;
3591;SDS011;1810;48.720;9.094;2023-06-22T03:42:41;126.85;;;121.28;;
3591;SDS011;1810;48.720;9.094;2023-06-22T03:45:09;141.98;;;135.88;;
3591;SDS011;1810;48.720;9.094;2023-06-22T03:47:38;133.15;;;127.07;;
3591;SDS011;1810;48.720;9.094;2023-06-22T03:50:07;142.23;;;135.98;;
3591;SDS011;1810;48.720;9.094;2023-06-22T03:52:35;153.02;;;146.40;;
3591;SDS011;1810;48.720;9.094;2023-06-22T03:55:06;154.27;;;147.38;;
3591;SDS011;1810;48.720;9.094;2023-06-22T03:57:37;131.85;;;126.00;;
3591;SDS011;1810;48.720;9.094;2023-06-22T04:00:07;139.90;;;133.68;;
3591;SDS011;1810;48.720;9.094;2023-06-22T04:02:36;178.05;;;170.30;;
3591;SDS011;1810;48.720;9.094;2023-06-22T04:05:06;139.98;;;133.98;;
3591;SDS011;1810;48.720;9.094;2023-06-22T04:07:36;203.15;;;194.27;;
3591;SDS011;1810;48.720;9.094;2023-06-22T04:10:04;230.88;;;221.13;;
3591;SDS011;1810;48.720;9.094;2023-06-22T04:12:36;283.88;;;271.88;;
3591;SDS011;1810;48.720;9.094;2023-06-22T04:15:05;279.33;;;267.30;;
3591;SDS011;1810;48.720;9.094;2023-06-22T04:17:36;294.05;;;281.55;;
3591;SDS011;1810;48.720;9.094;2023-06-22T04:20:10;251.85;;;241.25;;
3591;SDS011;1810;48.720;9.094;2023-06-22T04:22:38;265.40;;;253.73;;
3591;SDS011;1810;48.720;9.094;2023-06-22T04:25:07;275.52;;;263.63;;
3591;SDS011;1810;48.720;9.094;2023-06-22T04:27:35;269.08;;;257.95;;
3591;SDS011;1810;48.720;9.094;2023-06-22T04:30:08;235.40;;;225.60;;
3591;SDS011;1810;48.720;9.094;2023-06-22T04:32:38;224.70;;;215.30;;
3591;SDS011;1810;48.720;9.094;2023-06-22T04:35:07;309.58;;;296.10;;
3591;SDS011;1810;48.720;9.094;2023-06-22T04:37:36;422.00;;;402.45;;
3591;SDS011;1810;48.720;9.094;2023-06-22T04:40:05;460.58;;;438.45;;
3591;SDS011;1810;48.720;9.094;2023-06-22T04:42:37;611.45;;;577.13;;
3591;SDS011;1810;48.720;9.094;2023-06-22T04:45:07;566.50;;;536.17;;
3591;SDS011;1810;48.720;9.094;2023-06-22T04:47:37;598.95;;;566.60;;
3591;SDS011;1810;48.720;9.094;2023-06-22T04:50:05;557.35;;;527.63;;
3591;SDS011;1810;48.720;9.094;2023-06-22T04:52:34;513.53;;;487.98;;
3591;SDS011;1810;48.720;9.094;2023-06-22T04:55:03;446.73;;;424.85;;
3591;SDS011;1810;48.720;9.094;2023-06-22T04:57:32;468.88;;;445.90;;
3591;SDS011;1810;48.720;9.094;2023-06-22T05:00:00;425.05;;;405.20;;
3591;SDS011;1810;48.720;9.094;2023-06-22T05:02:40;417.05;;;397.52;;
3591;SDS011;1810;48.720;9.094;2023-06-22T05:05:09;437.05;;;415.80;;
3591;SDS011;1810;48.720;9.094;2023-06-22T05:07:41;445.23;;;423.75;;
3591;SDS011;1810;48.720;9.094;2023-06-22T05:10:11;427.95;;;407.77;;
3591;SDS011;1810;48.720;9.094;2023-06-22T05:12:40;421.15;;;401.42;;
3591;SDS011;1810;48.720;9.094;2023-06-22T05:15:11;404.80;;;386.02;;
3591;SDS011;1810;48.720;9.094;2023-06-22T05:17:42;413.85;;;394.33;;
3591;SDS011;1810;48.720;9.094;2023-06-22T05:20:14;412.50;;;393.35;;
3591;SDS011;1810;48.720;9.094;2023-06-22T05:22:44;409.58;;;390.58;;
3591;SDS011;1810;48.720;9.094;2023-06-22T05:25:12;393.88;;;375.83;;
3591;SDS011;1810;48.720;9.094;2023-06-22T05:27:41;389.58;;;371.55;;
3591;SDS011;1810;48.720;9.094;2023-06-22T05:30:10;383.90;;;366.42;;
3591;SDS011;1810;48.720;9.094;2023-06-22T05:32:39;395.33;;;376.88;;
3591;SDS011;1810;48.720;9.094;2023-06-22T05:35:09;414.13;;;394.75;;
3591;SDS011;1810;48.720;9.094;2023-06-22T05:37:37;400.08;;;381.52;;
3591;SDS011;1810;48.720;9.094;2023-06-22T05:40:06;350.85;;;335.35;;
3591;SDS011;1810;48.720;9.094;2023-06-22T05:42:36;339.70;;;324.63;;
3591;SDS011;1810;48.720;9.094;2023-06-22T05:45:05;381.73;;;364.33;;
3591;SDS011;1810;48.720;9.094;2023-06-22T05:47:34;372.50;;;355.73;;
3591;SDS011;1810;48.720;9.094;2023-06-22T05:50:02;354.48;;;338.60;;
3591;SDS011;1810;48.720;9.094;2023-06-22T05:52:38;370.48;;;353.88;;
3591;SDS011;1810;48.720;9.094;2023-06-22T05:55:07;329.63;;;315.23;;
3591;SDS011;1810;48.720;9.094;2023-06-22T05:57:36;370.02;;;352.58;;
3591;SDS011;1810;48.720;9.094;2023-06-22T06:00:05;349.85;;;333.98;;
3591;SDS011;1810;48.720;9.094;2023-06-22T06:02:38;325.63;;;311.45;;
3591;SDS011;1810;48.720;9.094;2023-06-22T06:05:15;333.88;;;319.30;;
3591;SDS011;1810;48.720;9.094;2023-06-22T06:07:47;346.45;;;330.95;;
3591;SDS011;1810;48.720;9.094;2023-06-22T06:10:17;404.90;;;385.77;;
3591;SDS011;1810;48.720;9.094;2023-06-22T06:12:45;389.65;;;371.83;;
3591;SDS011;1810;48.720;9.094;2023-06-22T06:15:14;393.55;;;375.20;;
3591;SDS011;1810;48.720;9.094;2023-06-22T06:17:46;355.35;;;339.58;;
3591;SDS011;1810;48.720;9.094;2023-06-22T06:20:15;391.20;;;373.30;;
3591;SDS011;1810;48.720;9.094;2023-06-22T06:22:47;385.67;;;367.95;;
3591;SDS011;1810;48.720;9.094;2023-06-22T06:25:16;342.88;;;327.88;;
3591;SDS011;1810;48.720;9.094;2023-06-22T06:27:46;397.02;;;378.05;;
3591;SDS011;1810;48.720;9.094;2023-06-22T06:30:16;307.95;;;294.67;;
3591;SDS011;1810;48.720;9.094;2023-06-22T06:32:45;290.00;;;277.80;;
3591;SDS011;1810;48.720;9.094;2023-06-22T06:35:14;344.48;;;329.27;;
3591;SDS011;1810;48.720;9.094;2023-06-22T06:37:43;377.25;;;360.15;;
3591;SDS011;1810;48.720;9.094;2023-06-22T06:40:15;402.35;;;383.83;;
3591;SDS011;1810;48.720;9.094;2023-06-22T06:42:45;391.38;;;373.35;;
3591;SDS011;1810;48.720;9.094;2023-06-22T06:45:15;374.30;;;357.38;;
3591;SDS011;1810;48.720;9.094;2023-06-22T06:47:45;347.83;;;332.17;;
3591;SDS011;1810;48.720;9.094;2023-06-22T06:50:14;344.38;;;328.92;;
3591;SDS011;1810;48.720;9.094;2023-06-22T06:52:43;353.45;;;337.45;;
3591;SDS011;1810;48.720;9.094;2023-06-22T06:55:12;369.17;;;352.70;;
3591;SDS011;1810;48.720;9.094;2023-06-22T06:57:41;381.25;;;364.05;;
3591;SDS011;1810;48.720;9.094;2023-06-22T07:00:11;409.08;;;390.23;;
3591;SDS011;1810;48.720;9.094;2023-06-22T07:02:42;435.33;;;414.63;;
3591;SDS011;1810;48.720;9.094;2023-06-22T07:05:11;495.08;;;470.48;;
3591;SDS011;1810;48.720;9.094;2023-06-22T07:07:40;581.13;;;549.75;;
3591;SDS011;1810;48.720;9.094;2023-06-22T07:10:09;528.58;;;501.67;;
3591;SDS011;1810;48.720;9.094;2023-06-22T07:12:39;473.25;;;449.92;;
3591;SDS011;1810;48.720;9.094;2023-06-22T07:15:08;414.92;;;395.20;;
3591;SDS011;1810;48.720;9.094;2023-06-22T07:17:39;420.52;;;400.00;;
3591;SDS011;1810;48.720;9.094;2023-06-22T07:20:08;465.63;;;442.65;;
3591;SDS011;1810;48.720;9.094;2023-06-22T07:22:51;502.02;;;476.80;;
3591;SDS011;1810;48.720;9.094;2023-06-22T07:25:20;513.08;;;487.05;;
3591;SDS011;1810;48.720;9.094;2023-06-22T07:27:57;575.03;;;544.45;;
3591;SDS011;1810;48.720;9.094;2023-06-22T07:30:28;443.88;;;422.25;;
3591;SDS011;1810;48.720;9.094;2023-06-22T07:32:57;464.05;;;441.13;;
3591;SDS011;1810;48.720;9.094;2023-06-22T07:35:29;384.65;;;366.70;;
3591;SDS011;1810;48.720;9.094;2023-06-22T07:37:58;447.50;;;425.70;;
3591;SDS011;1810;48.720;9.094;2023-06-22T07:40:31;416.55;;;396.08;;
3591;SDS011;1810;48.720;9.094;2023-06-22T07:43:01;527.50;;;500.23;;
3591;SDS011;1810;48.720;9.094;2023-06-22T07:45:30;400.27;;;381.48;;
3591;SDS011;1810;48.720;9.094;2023-06-22T07:48:01;375.88;;;358.35;;
3591;SDS011;1810;48.720;9.094;2023-06-22T07:50:30;539.42;;;511.08;;
3591;SDS011;1810;48.720;9.094;2023-06-22T07:52:58;457.20;;;434.77;;
3591;SDS011;1810;48.720;9.094;2023-06-22T07:55:27;508.10;;;481.50;;
3591;SDS011;1810;48.720;9.094;2023-06-22T07:57:55;528.25;;;501.25;;
3591;SDS011;1810;48.720;9.094;2023-06-22T08:00:25;454.17;;;431.48;;
3591;SDS011;1810;48.720;9.094;2023-06-22T08:02:55;538.40;;;510.33;;
3591;SDS011;1810;48.720;9.094;2023-06-22T08:05:23;501.67;;;476.42;;
3591;SDS011;1810;48.720;9.094;2023-06-22T08:07:52;515.15;;;489.08;;
3591;SDS011;1810;48.720;9.094;2023-06-22T08:10:21;556.92;;;527.38;;
3591;SDS011;1810;48.720;9.094;2023-06-22T08:12:50;529.20;;;501.85;;
3591;SDS011;1810;48.720;9.094;2023-06-22T08:15:19;560.47;;;531.28;;
3591;SDS011;1810;48.720;9.094;2023-06-22T08:17:49;623.95;;;589.15;;
3591;SDS011;1810;48.720;9.094;2023-06-22T08:20:19;553.03;;;524.28;;
3591;SDS011;1810;48.720;9.094;2023-06-22T08:22:47;519.35;;;493.48;;
3591;SDS011;1810;48.720;9.094;2023-06-22T08:25:16;468.95;;;446.15;;
3591;SDS011;1810;48.720;9.094;2023-06-22T08:27:45;466.52;;;443.02;;
3591;SDS011;1810;48.720;9.094;2023-06-22T08:30:14;439.95;;;418.80;;
3591;SDS011;1810;48.720;9.094;2023-06-22T08:32:43;498.58;;;472.98;;
3591;SDS011;1810;48.720;9.094;2023-06-22T08:35:13;400.15;;;381.83;;
3591;SDS011;1810;48.720;9.094;2023-06-22T08:37:41;412.70;;;393.15;;
3591;SDS011;1810;48.720;9.094;2023-06-22T08:40:16;368.67;;;351.55;;
3591;SDS011;1810;48.720;9.094;2023-06-22T08:42:46;385.17;;;367.45;;
3591;SDS011;1810;48.720;9.094;2023-06-22T08:45:15;376.20;;;359.10;;
3591;SDS011;1810;48.720;9.094;2023-06-22T08:47:44;372.98;;;356.35;;
3591;SDS011;1810;48.720;9.094;2023-06-22T08:50:14;391.05;;;373.33;;
3591;SDS011;1810;48.720;9.094;2023-06-22T08:52:42;372.67;;;355.70;;
3591;SDS011;1810;48.720;9.094;2023-06-22T08:55:12;383.02;;;365.77;;
3591;SDS011;1810;48.720;9.094;2023-06-22T08:57:40;361.20;;;344.92;;
3591;SDS011;1810;48.720;9.094;2023-06-22T09:00:10;362.65;;;346.35;;
3591;SDS011;1810;48.720;9.094;2023-06-22T09:02:44;360.92;;;345.08;;
3591;SDS011;1810;48.720;9.094;2023-06-22T09:05:14;368.45;;;351.85;;
3591;SDS011;1810;48.720;9.094;2023-06-22T09:07:42;356.67;;;340.80;;
3591;SDS011;1810;48.720;9.094;2023-06-22T09:10:11;409.75;;;390.77;;
3591;SDS011;1810;48.720;9.094;2023-06-22T09:12:40;362.45;;;346.25;;
3591;SDS011;1810;48.720;9.094;2023-06-22T09:15:09;352.92;;;337.25;;
3591;SDS011;1810;48.720;9.094;2023-06-22T09:17:41;365.70;;;349.43;;
3591;SDS011;1810;48.720;9.094;2023-06-22T09:20:14;367.42;;;350.60;;
3591;SDS011;1810;48.720;9.094;2023-06-22T09:22:43;360.13;;;344.38;;
3591;SDS011;1810;48.720;9.094;2023-06-22T09:25:11;357.10;;;341.05;;
3591;SDS011;1810;48.720;9.094;2023-06-22T09:27:40;351.40;;;335.83;;
3591;SDS011;1810;48.720;9.094;2023-06-22T09:30:09;361.73;;;345.52;;
3591;SDS011;1810;48.720;9.094;2023-06-22T09:32:37;373.02;;;356.00;;
3591;SDS011;1810;48.720;9.094;2023-06-22T09:35:06;373.83;;;356.90;;
3591;SDS011;1810;48.720;9.094;2023-06-22T09:37:43;390.30;;;372.63;;
3591;SDS011;1810;48.720;9.094;2023-06-22T09:40:11;460.83;;;438.27;;
3591;SDS011;1810;48.720;9.094;2023-06-22T09:42:43;421.00;;;401.02;;
3591;SDS011;1810;48.720;9.094;2023-06-22T09:45:11;534.70;;;506.48;;
3591;SDS011;1810;48.720;9.094;2023-06-22T09:47:40;477.13;;;453.80;;
3591;SDS011;1810;48.720;9.094;2023-06-22T09:50:09;500.90;;;475.77;;
3591;SDS011;1810;48.720;9.094;2023-06-22T09:52:38;484.95;;;460.83;;
3591;SDS011;1810;48.720;9.094;2023-06-22T09:55:15;446.13;;;425.10;;
3591;SDS011;1810;48.720;9.094;2023-06-22T09:57:43;438.00;;;417.25;;
3591;SDS011;1810;48.720;9.094;2023-06-22T10:00:12;431.75;;;411.30;;
3591;SDS011;1810;48.720;9.094;2023-06-22T10:02:42;437.05;;;416.25;;
3591;SDS011;1810;48.720;9.094;2023-06-22T10:05:11;429.58;;;409.17;;
3591;SDS011;1810;48.720;9.094;2023-06-22T10:07:40;407.30;;;388.45;;
3591;SDS011;1810;48.720;9.094;2023-06-22T10:10:11;483.05;;;458.38;;
3591;SDS011;1810;48.720;9.094;2023-06-22T10:12:42;438.63;;;417.95;;
3591;SDS011;1810;48.720;9.094;2023-06-22T10:15:13;402.08;;;383.60;;
3591;SDS011;1810;48.720;9.094;2023-06-22T10:17:42;347.90;;;332.38;;
3591;SDS011;1810;48.720;9.094;2023-06-22T10:20:11;347.60;;;332.13;;
3591;SDS011;1810;48.720;9.094;2023-06-22T10:22:40;333.75;;;318.85;;
3591;SDS011;1810;48.720;9.094;2023-06-22T10:25:09;447.08;;;424.58;;
3591;SDS011;1810;48.720;9.094;2023-06-22T10:27:38;347.52;;;331.95;;
3591;SDS011;1810;48.720;9.094;2023-06-22T10:30:09;338.33;;;323.50;;
3591;SDS011;1810;48.720;9.094;2023-06-22T10:32:39;365.63;;;348.38;;
3591;SDS011;1810;48.720;9.094;2023-06-22T10:35:09;326.08;;;311.50;;
3591;SDS011;1810;48.720;9.094;2023-06-22T10:37:40;331.90;;;317.35;;
3591;SDS011;1810;48.720;9.094;2023-06-22T10:40:10;442.55;;;421.08;;
3591;SDS011;1810;48.720;9.094;2023-06-22T10:42:39;329.33;;;314.52;;
3591;SDS011;1810;48.720;9.094;2023-06-22T10:45:09;352.77;;;336.92;;
3591;SDS011;1810;48.720;9.094;2023-06-22T10:47:38;321.00;;;306.80;;
3591;SDS011;1810;48.720;9.094;2023-06-22T10:50:08;315.92;;;302.00;;
3591;SDS011;1810;48.720;9.094;2023-06-22T10:52:37;338.67;;;323.67;;
3591;SDS011;1810;48.720;9.094;2023-06-22T10:55:06;336.85;;;322.13;;
3591;SDS011;1810;48.720;9.094;2023-06-22T10:57:35;348.58;;;333.30;;
3591;SDS011;1810;48.720;9.094;2023-06-22T11:00:05;350.35;;;334.55;;
3591;SDS011;1810;48.720;9.094;2023-06-22T11:02:39;366.17;;;349.65;;
3591;SDS011;1810;48.720;9.094;2023-06-22T11:05:08;336.77;;;321.65;;
3591;SDS011;1810;48.720;9.094;2023-06-22T11:07:37;348.77;;;333.00;;
3591;SDS011;1810;48.720;9.094;2023-06-22T11:10:12;358.65;;;342.52;;
3591;SDS011;1810;48.720;9.094;2023-06-22T11:12:41;354.50;;;338.52;;
3591;SDS011;1810;48.720;9.094;2023-06-22T11:15:09;346.30;;;331.02;;
3591;SDS011;1810;48.720;9.094;2023-06-22T11:17:39;341.60;;;326.20;;
3591;SDS011;1810;48.720;9.094;2023-06-22T11:20:08;341.08;;;325.65;;
3591;SDS011;1810;48.720;9.094;2023-06-22T11:22:38;310.95;;;296.90;;
3591;SDS011;1810;48.720;9.094;2023-06-22T11:25:06;321.55;;;307.60;;
3591;SDS011;1810;48.720;9.094;2023-06-22T11:27:35;300.35;;;287.45;;
3591;SDS011;1810;48.720;9.094;2023-06-22T11:30:04;303.42;;;290.15;;
3591;SDS011;1810;48.720;9.094;2023-06-22T11:32:33;445.63;;;423.52;;
3591;SDS011;1810;48.720;9.094;2023-06-22T11:35:04;302.20;;;289.27;;
3591;SDS011;1810;48.720;9.094;2023-06-22T11:37:33;314.30;;;300.52;;
3591;SDS011;1810;48.720;9.094;2023-06-22T11:40:01;345.77;;;330.25;;
3591;SDS011;1810;48.720;9.094;2023-06-22T11:42:34;338.88;;;323.88;;
3591;SDS011;1810;48.720;9.094;2023-06-22T11:45:04;392.63;;;374.20;;
3591;SDS011;1810;48.720;9.094;2023-06-22T11:47:33;298.05;;;285.38;;
3591;SDS011;1810;48.720;9.094;2023-06-22T11:50:04;295.92;;;283.23;;
3591;SDS011;1810;48.720;9.094;2023-06-22T11:52:35;303.00;;;289.50;;
3591;SDS011;1810;48.720;9.094;2023-06-22T11:55:04;309.70;;;295.90;;
3591;SDS011;1810;48.720;9.094;2023-06-22T11:57:33;304.58;;;291.50;;
3591;SDS011;1810;48.720;9.094;2023-06-22T12:00:03;411.10;;;390.92;;
3591;SDS011;1810;48.720;9.094;2023-06-22T12:02:42;326.55;;;311.67;;
3591;SDS011;1810;48.720;9.094;2023-06-22T12:05:13;337.63;;;322.65;;
3591;SDS011;1810;48.720;9.094;2023-06-22T12:07:41;311.58;;;297.95;;
3591;SDS011;1810;48.720;9.094;2023-06-22T12:10:10;326.50;;;311.90;;
3591;SDS011;1810;48.720;9.094;2023-06-22T12:12:38;307.90;;;294.38;;
3591;SDS011;1810;48.720;9.094;2023-06-22T12:15:08;302.67;;;289.58;;
3591;SDS011;1810;48.720;9.094;2023-06-22T12:17:37;293.05;;;279.90;;
3591;SDS011;1810;48.720;9.094;2023-06-22T12:20:06;303.58;;;290.23;;
3591;SDS011;1810;48.720;9.094;2023-06-22T12:22:36;305.08;;;291.35;;
3591;SDS011;1810;48.720;9.094;2023-06-22T12:25:05;345.40;;;330.08;;
3591;SDS011;1810;48.720;9.094;2023-06-22T12:27:34;303.17;;;289.83;;
3591;SDS011;1810;48.720;9.094;2023-06-22T12:30:03;301.90;;;288.63;;
3591;SDS011;1810;48.720;9.094;2023-06-22T12:32:32;295.92;;;283.00;;
3591;SDS011;1810;48.720;9.094;2023-06-22T12:35:01;288.27;;;276.02;;
3591;SDS011;1810;48.720;9.094;2023-06-22T12:37:29;287.02;;;274.48;;
3591;SDS011;1810;48.720;9.094;2023-06-22T12:40:00;358.75;;;342.08;;
3591;SDS011;1810;48.720;9.094;2023-06-22T12:42:29;297.77;;;284.92;;
3591;SDS011;1810;48.720;9.094;2023-06-22T12:44:58;310.83;;;297.20;;
3591;SDS011;1810;48.720;9.094;2023-06-22T12:47:26;305.70;;;292.45;;
3591;SDS011;1810;48.720;9.094;2023-06-22T12:49:55;316.45;;;302.88;;
3591;SDS011;1810;48.720;9.094;2023-06-22T12:52:23;321.23;;;306.92;;
3591;SDS011;1810;48.720;9.094;2023-06-22T12:54:52;348.95;;;333.33;;
3591;SDS011;1810;48.720;9.094;2023-06-22T12:57:22;343.67;;;328.50;;
3591;SDS011;1810;48.720;9.094;2023-06-22T12:59:51;363.65;;;347.27;;
3591;SDS011;1810;48.720;9.094;2023-06-22T13:02:20;453.58;;;430.85;;
3591;SDS011;1810;48.720;9.094;2023-06-22T13:04:48;391.98;;;374.05;;
3591;SDS011;1810;48.720;9.094;2023-06-22T13:07:17;396.70;;;378.48;;
3591;SDS011;1810;48.720;9.094;2023-06-22T13:09:49;412.52;;;393.13;;
3591;SDS011;1810;48.720;9.094;2023-06-22T13:12:19;408.80;;;389.83;;
3591;SDS011;1810;48.720;9.094;2023-06-22T13:14:49;421.15;;;401.45;;
3591;SDS011;1810;48.720;9.094;2023-06-22T13:17:17;413.00;;;393.98;;
3591;SDS011;1810;48.720;9.094;2023-06-22T13:19:46;449.63;;;427.88;;
3591;SDS011;1810;48.720;9.094;2023-06-22T13:22:28;391.55;;;373.20;;
3591;SDS011;1810;48.720;9.094;2023-06-22T13:24:58;371.35;;;354.48;;
3591;SDS011;1810;48.720;9.094;2023-06-22T13:27:27;348.08;;;332.83;;
3591;SDS011;1810;48.720;9.094;2023-06-22T13:29:57;325.30;;;310.70;;
3591;SDS011;1810;48.720;9.094;2023-06-22T13:32:26;311.17;;;297.50;;
3591;SDS011;1810;48.720;9.094;2023-06-22T13:34:54;313.80;;;299.98;;
3591;SDS011;1810;48.720;9.094;2023-06-22T13:37:23;306.13;;;292.52;;
3591;SDS011;1810;48.720;9.094;2023-06-22T13:39:52;344.75;;;329.15;;
3591;SDS011;1810;48.720;9.094;2023-06-22T13:42:22;311.35;;;298.05;;
3591;SDS011;1810;48.720;9.094;2023-06-22T13:44:51;313.23;;;298.83;;
3591;SDS011;1810;48.720;9.094;2023-06-22T13:47:21;292.80;;;279.92;;
3591;SDS011;1810;48.720;9.094;2023-06-22T13:49:54;288.35;;;275.98;;
3591;SDS011;1810;48.720;9.094;2023-06-22T13:52:23;372.73;;;355.52;;
3591;SDS011;1810;48.720;9.094;2023-06-22T13:54:52;290.60;;;278.05;;
3591;SDS011;1810;48.720;9.094;2023-06-22T13:57:20;325.92;;;310.95;;
3591;SDS011;1810;48.720;9.094;2023-06-22T13:59:49;295.17;;;282.40;;
3591;SDS011;1810;48.720;9.094;2023-06-22T14:02:17;298.88;;;286.13;;
3591;SDS011;1810;48.720;9.094;2023-06-22T14:04:47;327.25;;;312.35;;
3591;SDS011;1810;48.720;9.094;2023-06-22T14:07:16;306.60;;;293.35;;
3591;SDS011;1810;48.720;9.094;2023-06-22T14:09:45;337.25;;;322.45;;
3591;SDS011;1810;48.720;9.094;2023-06-22T14:12:14;325.25;;;310.90;;
3591;SDS011;1810;48.720;9.094;2023-06-22T14:14:44;327.13;;;312.77;;
3591;SDS011;1810;48.720;9.094;2023-06-22T14:17:12;361.90;;;345.25;;
3591;SDS011;1810;48.720;9.094;2023-06-22T14:19:41;366.33;;;349.75;;
3591;SDS011;1810;48.720;9.094;2023-06-22T14:22:10;450.08;;;427.85;;
3591;SDS011;1810;48.720;9.094;2023-06-22T14:24:39;419.20;;;399.05;;
3591;SDS011;1810;48.720;9.094;2023-06-22T14:27:07;398.25;;;379.42;;
3591;SDS011;1810;48.720;9.094;2023-06-22T14:29:36;400.92;;;381.98;;
3591;SDS011;1810;48.720;9.094;2023-06-22T14:32:04;395.10;;;376.73;;
3591;SDS011;1810;48.720;9.094;2023-06-22T14:34:33;377.55;;;360.17;;
3591;SDS011;1810;48.720;9.094;2023-06-22T14:37:05;407.88;;;388.48;;
3591;SDS011;1810;48.720;9.094;2023-06-22T14:39:37;453.02;;;430.35;;
3591;SDS011;1810;48.720;9.094;2023-06-22T14:42:05;433.13;;;412.55;;